Time;durP1;ratioP1;P1;durP2;ratioP2;P2;SDS_P1;SDS_P2;PMS_P1;PMS_P2;Temp;Humidity;BMP_temperature;BMP_pressure;BME280_temperature;BME280_humidity;BME280_pressure;Samples;Min_cycle;Max_cycle;Signal;HPM_P1;HPM_P2
2023/07/12 00:01:25;;;;;;;0.30;0.30;;;28.90;67.70;;;29.69;51.82;94630.22;5097632;28;20205;-41
2023/07/12 00:03:52;;;;;;;0.22;0.22;;;28.80;67.60;;;29.68;51.44;94627.84;5096159;28;20199;-41
2023/07/12 00:06:32;;;;;;;0.30;0.30;;;28.80;67.60;;;29.65;52.05;94623.06;5096980;28;20257;-40
2023/07/12 00:08:59;;;;;;;0.30;0.30;;;28.80;67.80;;;29.65;51.36;94631.19;5096792;28;20201;-41
2023/07/12 00:11:26;;;;;;;0.30;0.30;;;28.80;67.70;;;29.63;51.90;94634.19;5097091;28;20620;-41
2023/07/12 00:13:54;;;;;;;0.40;0.40;;;28.80;67.70;;;29.63;51.78;94638.81;5097092;28;20205;-42
2023/07/12 00:16:48;;;;;;;0.20;0.20;;;28.80;67.80;;;29.59;51.96;94630.56;5096949;28;20297;-40
2023/07/12 00:19:15;;;;;;;0.35;0.35;;;28.80;67.80;;;29.59;51.96;94622.47;5095974;28;20258;-41
2023/07/12 00:21:43;;;;;;;0.20;0.20;;;28.80;67.90;;;29.58;52.03;94623.56;5096684;28;20192;-41
2023/07/12 00:24:10;;;;;;;0.30;0.30;;;28.80;68.00;;;29.57;51.49;94621.19;5096650;28;20198;-40
2023/07/12 00:26:38;;;;;;;0.30;0.30;;;28.80;68.00;;;29.56;51.85;94617.69;5096407;28;20261;-41
2023/07/12 00:29:07;;;;;;;0.20;0.20;;;28.80;68.10;;;29.54;51.67;94612.59;5112376;28;20299;-42
2023/07/12 00:31:37;;;;;;;0.30;0.30;;;28.80;68.20;;;29.54;52.38;94609.09;5096780;28;20189;-40
2023/07/12 00:34:05;;;;;;;0.40;0.40;;;28.70;68.10;;;29.52;52.33;94612.13;5096697;28;20195;-41
2023/07/12 00:36:34;;;;;;;0.20;0.20;;;28.70;68.10;;;29.52;52.30;94612.13;5096320;28;20643;-42
2023/07/12 00:39:05;;;;;;;0.30;0.30;;;28.70;68.10;;;29.51;51.90;94613.22;5096361;28;20200;-43
2023/07/12 00:41:59;;;;;;;0.30;0.30;;;28.70;68.10;;;29.47;52.28;94612.28;5096300;28;20247;-41
2023/07/12 00:44:45;;;;;;;0.30;0.30;;;28.70;68.20;;;29.46;52.20;94601.81;5095641;28;20526;-41
2023/07/12 00:47:13;;;;;;;0.30;0.30;;;28.70;68.20;;;29.46;52.54;94612.63;5078563;28;20205;-40
2023/07/12 00:49:40;;;;;;;0.20;0.20;;;28.70;68.20;;;29.44;51.96;94604.81;5095190;28;20205;-42
2023/07/12 00:52:14;;;;;;;0.35;0.35;;;28.60;68.10;;;29.44;51.87;94618.31;5096347;28;20209;-41
2023/07/12 00:55:01;;;;;;;0.30;0.30;;;28.70;68.30;;;29.39;52.57;94621.19;5094741;28;20539;-42
2023/07/12 00:57:31;;;;;;;0.40;0.40;;;28.60;68.20;;;29.38;52.40;94623.13;5096513;28;20524;-42
2023/07/12 01:00:12;;;;;;;0.30;0.30;;;28.60;68.20;;;29.38;52.62;94619.59;5095867;28;20179;-42
2023/07/12 01:02:43;;;;;;;0.30;0.30;;;28.60;68.40;;;29.37;52.14;94655.84;5095329;28;20270;-42
2023/07/12 01:05:12;;;;;;;0.30;0.30;;;28.60;68.40;;;29.36;52.08;94770.44;5095119;28;20208;-41
2023/07/12 01:07:43;;;;;;;0.30;0.30;;;28.60;68.40;;;29.35;52.15;94842.56;5096124;28;20218;-40
2023/07/12 01:10:10;;;;;;;0.30;0.30;;;28.60;68.40;;;29.34;52.84;94824.75;5095713;28;20200;-45
2023/07/12 01:12:37;;;;;;;0.30;0.30;;;28.60;68.50;;;29.33;52.78;94844.00;5094756;28;20192;-41
2023/07/12 01:15:11;;;;;;;0.20;0.20;;;28.60;68.50;;;29.32;52.59;94820.78;5094897;28;20261;-41
2023/07/12 01:17:38;;;;;;;0.30;0.30;;;28.50;68.60;;;29.31;52.43;94830.81;5095872;28;20626;-39
2023/07/12 01:20:08;;;;;;;0.30;0.30;;;28.50;68.50;;;29.28;52.81;94853.00;5094979;28;20204;-40
2023/07/12 01:22:35;;;;;;;0.30;0.30;;;28.50;68.40;;;29.28;52.32;94846.81;5095581;28;20260;-40
2023/07/12 01:25:04;;;;;;;0.20;0.20;;;28.50;68.50;;;29.28;52.35;94849.50;5111527;28;20306;-40
2023/07/12 01:27:31;;;;;;;0.30;0.30;;;28.50;68.40;;;29.24;52.24;94839.31;5095524;28;20253;-40
2023/07/12 01:29:58;;;;;;;0.20;0.20;;;28.50;68.30;;;29.23;52.56;94851.25;5095485;28;20209;-40
2023/07/12 01:32:26;;;;;;;0.30;0.30;;;28.50;68.20;;;29.22;52.61;94840.75;5095420;28;20259;-40
2023/07/12 01:34:53;;;;;;;0.20;0.20;;;28.50;69.10;;;29.20;52.72;94841.06;5094541;28;20641;-40
2023/07/12 01:37:23;;;;;;;0.30;0.30;;;28.50;68.20;;;29.20;52.09;94837.59;5095560;28;20311;-40
2023/07/12 01:39:53;;;;;;;0.30;0.30;;;28.50;68.30;;;29.19;52.11;94838.69;5095140;28;20632;-40
2023/07/12 01:42:20;;;;;;;0.30;0.30;;;28.40;68.20;;;29.18;52.09;94829.00;5095553;28;20188;-40
2023/07/12 01:44:47;;;;;;;0.20;0.20;;;28.40;68.20;;;29.17;52.57;94822.00;5094605;28;20248;-41
2023/07/12 01:47:14;;;;;;;0.30;0.30;;;28.40;68.40;;;29.14;52.84;94815.31;5094290;28;20285;-39
2023/07/12 01:49:41;;;;;;;0.25;0.25;;;28.40;68.40;;;29.14;52.85;94830.69;5095009;28;20219;-40
2023/07/12 01:52:09;;;;;;;0.30;0.30;;;28.40;68.40;;;29.14;52.83;94849.59;5095139;28;20200;-42
2023/07/12 01:54:36;;;;;;;0.30;0.30;;;28.40;68.50;;;29.12;52.68;94857.25;5095083;28;20202;-40
2023/07/12 01:57:03;;;;;;;0.40;0.40;;;28.40;68.50;;;29.11;52.38;94861.06;5095289;28;20230;-41
2023/07/12 01:59:31;;;;;;;0.30;0.30;;;28.40;68.50;;;29.10;52.67;94868.38;5093922;28;20204;-41
2023/07/12 02:01:58;;;;;;;0.20;0.20;;;28.30;68.60;;;29.09;52.48;94861.38;5095071;28;20630;-44
2023/07/12 02:04:25;;;;;;;0.30;0.30;;;28.30;68.60;;;29.08;53.04;94848.97;5095026;28;20622;-44
2023/07/12 02:06:52;;;;;;;0.30;0.30;;;28.40;68.70;;;29.07;53.00;94850.06;5096537;28;20231;-47
2023/07/12 02:09:19;;;;;;;0.28;0.28;;;28.40;68.80;;;29.06;52.67;94848.47;5099523;28;20190;-45
2023/07/12 02:11:47;;;;;;;0.40;0.40;;;28.30;69.80;;;29.05;52.75;94853.09;5115046;28;20223;-44
2023/07/12 02:14:14;;;;;;;0.20;0.20;;;28.30;68.90;;;29.05;53.24;94839.59;5099151;28;20225;-49
2023/07/12 02:16:41;;;;;;;0.30;0.30;;;28.30;68.90;;;29.04;53.13;94839.88;5098326;28;20606;-44
2023/07/12 02:19:08;;;;;;;0.30;0.30;;;28.30;69.20;;;29.03;52.82;94825.59;5098067;28;20623;-44
2023/07/12 02:21:35;;;;;;;0.20;0.20;;;28.30;69.20;;;29.02;53.39;94832.09;5098584;28;20631;-47
2023/07/12 02:24:02;;;;;;;0.30;0.30;;;28.30;69.30;;;29.02;53.43;94834.00;5099490;28;20272;-43
2023/07/12 02:26:30;;;;;;;0.20;0.20;;;28.30;69.30;;;29.01;53.30;94832.41;5097904;28;20290;-44
2023/07/12 02:28:57;;;;;;;0.30;0.30;;;28.30;69.30;;;29.00;53.45;94828.13;5099397;28;20283;-47
2023/07/12 02:31:25;;;;;;;0.20;0.20;;;28.30;69.40;;;28.99;53.10;94821.94;5097708;28;20200;-44
2023/07/12 02:33:55;;;;;;;0.20;0.20;;;28.30;69.30;;;28.99;53.52;94819.25;5114889;28;20200;-46
2023/07/12 02:36:23;;;;;;;0.20;0.20;;;28.30;69.40;;;28.97;53.02;94810.66;5114743;28;20225;-44
2023/07/12 02:38:50;;;;;;;0.20;0.20;;;28.20;69.30;;;28.97;53.71;94812.56;5080991;28;20203;-49
2023/07/12 02:41:18;;;;;;;0.30;0.30;;;28.20;69.30;;;28.97;53.71;94812.56;5114532;28;20256;-44
2023/07/12 02:43:46;;;;;;;0.20;0.20;;;28.20;69.30;;;28.95;53.18;94810.16;5098244;28;20623;-45
2023/07/12 02:46:13;;;;;;;0.30;0.30;;;28.20;69.30;;;28.93;53.24;94801.59;5098561;28;20191;-44
2023/07/12 02:48:41;;;;;;;0.22;0.22;;;28.20;69.30;;;28.92;53.23;94800.00;5098481;28;20245;-47
2023/07/12 02:51:08;;;;;;;0.30;0.30;;;28.20;69.30;;;28.91;53.40;94804.56;5097522;28;20196;-49
2023/07/12 02:53:36;;;;;;;0.28;0.28;;;28.20;69.30;;;28.89;53.67;94787.91;5098940;28;20269;-45
2023/07/12 02:56:07;;;;;;;0.30;0.30;;;28.20;69.30;;;28.88;53.75;94783.63;5097746;28;20176;-44
2023/07/12 02:58:34;;;;;;;0.30;0.30;;;28.10;69.20;;;28.87;53.74;94765.03;5098851;28;20644;-47
2023/07/12 03:01:02;;;;;;;0.30;0.30;;;28.20;69.30;;;28.86;53.26;94755.34;5114097;28;20189;-47
2023/07/12 03:03:30;;;;;;;0.20;0.20;;;28.20;69.30;;;28.84;53.12;94742.13;5097437;28;20201;-42
2023/07/12 03:06:10;;;;;;;0.20;0.20;;;28.10;69.20;;;28.83;53.83;94734.34;5098667;28;20185;-47
2023/07/12 03:08:37;;;;;;;0.20;0.20;;;28.10;69.20;;;28.82;53.84;94721.97;5098108;28;20571;-41
2023/07/12 03:11:08;;;;;;;0.20;0.20;;;28.10;69.30;;;28.80;53.76;94706.09;5097391;28;20253;-44
2023/07/12 03:13:36;;;;;;;0.30;0.30;;;28.10;69.20;;;28.80;53.80;94689.91;5098388;28;20187;-41
2023/07/12 03:16:05;;;;;;;0.30;0.30;;;28.10;69.20;;;28.78;53.20;94681.31;5098015;28;20225;-41
2023/07/12 03:18:32;;;;;;;0.30;0.30;;;28.10;69.20;;;28.78;53.33;94656.22;5097560;28;20209;-40
2023/07/12 03:21:02;;;;;;;0.30;0.30;;;28.10;69.30;;;28.76;53.92;94651.16;5097724;28;20221;-41
2023/07/12 03:23:31;;;;;;;0.30;0.30;;;28.10;69.30;;;28.77;53.97;94617.63;5097236;28;20241;-41
2023/07/12 03:25:58;;;;;;;0.30;0.30;;;28.10;69.30;;;28.74;54.00;94580.50;5097568;28;20515;-41
2023/07/12 03:28:26;;;;;;;0.30;0.30;;;28.00;69.20;;;28.74;54.17;94572.41;5098304;28;20191;-40
2023/07/12 03:31:15;;;;;;;0.22;0.22;;;28.00;69.20;;;28.71;54.36;94564.91;5097861;28;20550;-41
2023/07/12 03:33:46;;;;;;;0.20;0.20;;;28.00;69.20;;;28.71;53.73;94575.72;5097075;28;20206;-40
2023/07/12 03:36:15;;;;;;;0.30;0.30;;;28.00;69.20;;;28.71;54.15;94568.44;5097349;28;20185;-41
2023/07/12 03:38:42;;;;;;;0.20;0.20;;;28.00;69.20;;;28.70;54.33;94574.94;5097456;28;20655;-41
2023/07/12 03:41:11;;;;;;;0.30;0.30;;;28.00;69.20;;;28.71;54.40;94575.72;5096461;28;20246;-40
2023/07/12 03:43:38;;;;;;;0.30;0.30;;;28.00;69.20;;;28.69;54.07;94570.66;5097429;28;20199;-41
2023/07/12 03:46:05;;;;;;;0.20;0.20;;;28.00;69.20;;;28.68;54.40;94568.22;5097508;28;20190;-41
2023/07/12 03:48:33;;;;;;;0.30;0.30;;;28.00;69.30;;;28.68;54.03;94565.53;5097344;28;20198;-41
2023/07/12 03:51:00;;;;;;;0.20;0.20;;;28.00;69.30;;;28.67;54.45;94582.84;5097130;28;20195;-41
2023/07/12 03:53:28;;;;;;;0.20;0.20;;;28.00;69.40;;;28.67;54.44;94594.41;5096386;28;20277;-44
2023/07/12 03:56:01;;;;;;;0.30;0.30;;;28.00;69.40;;;28.65;54.55;94588.56;5097417;28;20240;-41
2023/07/12 03:58:34;;;;;;;0.30;0.30;;;28.00;70.50;;;28.66;53.90;94578.53;5097003;28;20228;-41
2023/07/12 04:01:08;;;;;;;0.30;0.30;;;28.00;69.60;;;28.64;54.52;94581.56;5097393;28;20167;-41
2023/07/12 04:03:37;;;;;;;0.20;0.20;;;28.00;69.60;;;28.63;53.96;94574.56;5097494;28;20607;-42
2023/07/12 04:06:07;;;;;;;0.30;0.30;;;27.90;69.60;;;28.64;54.15;94580.75;5097289;28;20183;-41
2023/07/12 04:08:34;;;;;;;0.20;0.20;;;28.00;69.60;;;28.63;54.66;94579.19;5096445;28;20238;-44
2023/07/12 04:11:03;;;;;;;0.20;0.20;;;28.00;69.50;;;28.62;54.62;94570.28;5097119;28;20198;-44
2023/07/12 04:13:30;;;;;;;0.30;0.30;;;28.00;69.60;;;28.60;53.87;94567.91;5096887;28;20233;-42
2023/07/12 04:16:00;;;;;;;0.20;0.20;;;28.00;69.60;;;28.59;54.21;94560.13;5096812;28;20208;-41
2023/07/12 04:18:28;;;;;;;0.20;0.20;;;27.90;69.60;;;28.58;54.21;94551.22;5095815;28;20257;-41
2023/07/12 04:21:01;;;;;;;0.28;0.28;;;27.90;69.60;;;28.58;54.62;94555.84;5096984;28;20268;-42
2023/07/12 04:23:28;;;;;;;0.30;0.30;;;27.90;69.60;;;28.58;54.13;94561.25;5096973;28;20198;-42
2023/07/12 04:26:01;;;;;;;0.30;0.30;;;27.90;69.60;;;28.57;54.78;94555.03;5096416;28;20693;-41
2023/07/12 04:28:31;;;;;;;0.30;0.30;;;27.90;69.70;;;28.55;54.21;94562.66;5095916;28;20290;-41
2023/07/12 04:31:03;;;;;;;0.30;0.30;;;27.90;69.70;;;28.54;54.38;94562.97;5096553;28;20185;-41
2023/07/12 04:33:31;;;;;;;0.30;0.30;;;27.90;69.80;;;28.54;54.65;94552.97;5096526;28;20239;-42
2023/07/12 04:35:58;;;;;;;0.25;0.25;;;27.90;69.70;;;28.53;54.17;94562.19;5095557;28;20198;-41
2023/07/12 04:38:27;;;;;;;0.30;0.30;;;27.90;69.80;;;28.52;54.94;94563.28;5095648;28;20225;-44
2023/07/12 04:40:55;;;;;;;0.20;0.20;;;27.90;69.80;;;28.53;54.29;94559.47;5096164;28;20245;-42
2023/07/12 04:43:22;;;;;;;0.22;0.22;;;27.80;69.70;;;28.52;55.00;94559.81;5096295;28;20279;-42
2023/07/12 04:45:50;;;;;;;0.20;0.20;;;27.90;69.90;;;28.51;55.05;94560.91;5096767;28;20193;-41
2023/07/12 04:48:17;;;;;;;0.30;0.30;;;27.80;69.90;;;28.50;55.04;94562.78;5096161;28;20212;-43
2023/07/12 04:50:44;;;;;;;0.30;0.30;;;27.80;69.90;;;28.51;55.03;94563.59;5096745;28;20572;-44
2023/07/12 04:53:14;;;;;;;0.20;0.20;;;27.80;70.00;;;28.50;54.75;94554.69;5096135;28;20635;-43
2023/07/12 04:55:41;;;;;;;0.20;0.20;;;27.80;70.00;;;28.51;54.90;94558.22;5096378;28;20232;-42
2023/07/12 04:58:09;;;;;;;0.20;0.20;;;27.90;70.00;;;28.50;54.55;94552.00;5095025;28;20214;-43
2023/07/12 05:00:36;;;;;;;0.30;0.30;;;27.80;70.00;;;28.49;54.68;94541.53;5096413;28;20215;-45
2023/07/12 05:03:03;;;;;;;0.30;0.30;;;27.80;70.10;;;28.51;55.52;94550.13;5096237;28;20254;-44
2023/07/12 05:05:31;;;;;;;0.30;0.30;;;27.80;70.10;;;28.50;54.59;94559.31;5095879;28;20187;-47
2023/07/12 05:07:58;;;;;;;0.30;0.30;;;27.80;70.20;;;28.49;55.13;94555.84;5095237;28;20209;-43
2023/07/12 05:10:25;;;;;;;0.20;0.20;;;27.80;70.20;;;28.49;54.79;94555.03;5096317;28;20260;-48
2023/07/12 05:12:52;;;;;;;0.30;0.30;;;27.80;70.20;;;28.49;54.87;94561.22;5095704;28;20195;-42
2023/07/12 05:15:20;;;;;;;0.30;0.30;;;27.80;70.20;;;28.51;54.91;94558.22;5095407;28;20317;-41
2023/07/12 05:17:47;;;;;;;0.30;0.30;;;27.80;70.20;;;28.50;55.22;94560.09;5095601;28;20211;-42
2023/07/12 05:20:15;;;;;;;0.30;0.30;;;27.80;70.20;;;28.49;54.83;94561.22;5094900;28;20250;-42
2023/07/12 05:22:43;;;;;;;0.20;0.20;;;27.80;70.20;;;28.49;54.74;94552.31;5094609;28;20196;-41
2023/07/12 05:25:10;;;;;;;0.30;0.30;;;27.80;70.20;;;28.49;55.33;94560.41;5095271;28;20188;-41
2023/07/12 05:27:38;;;;;;;0.20;0.20;;;27.80;71.20;;;28.49;54.92;94566.63;5095351;28;20340;-41
2023/07/12 05:30:06;;;;;;;0.30;0.30;;;27.80;70.30;;;28.49;55.50;94566.63;5095487;28;20618;-41
2023/07/12 05:32:33;;;;;;;0.30;0.30;;;27.80;70.30;;;28.50;55.39;94575.50;5095159;28;20216;-41
2023/07/12 05:35:00;;;;;;;0.30;0.30;;;27.80;70.30;;;28.50;55.39;94583.59;5095398;28;20207;-40
2023/07/12 05:37:27;;;;;;;0.30;0.30;;;27.80;70.20;;;28.49;54.95;94582.81;5095570;28;20238;-40
2023/07/12 05:39:58;;;;;;;0.30;0.30;;;27.80;70.20;;;28.50;55.46;94575.50;5095272;28;20196;-41
2023/07/12 05:42:26;;;;;;;0.30;0.30;;;27.80;70.20;;;28.49;54.84;94572.03;5095130;28;20182;-41
2023/07/12 05:44:53;;;;;;;0.30;0.30;;;27.90;70.30;;;28.49;55.24;94566.63;5095560;28;20277;-42
2023/07/12 05:47:20;;;;;;;0.30;0.30;;;27.90;70.40;;;28.49;55.33;94555.84;5095225;28;20291;-40
2023/07/12 05:49:47;;;;;;;0.30;0.30;;;27.80;70.30;;;28.50;54.86;94551.22;5095456;28;20599;-41
2023/07/12 05:52:14;;;;;;;0.30;0.30;;;27.80;70.30;;;28.51;55.11;94558.22;5095185;28;20190;-41
2023/07/12 05:54:41;;;;;;;0.20;0.20;;;27.80;70.30;;;28.49;54.97;94563.94;5094818;28;20216;-41
2023/07/12 05:57:09;;;;;;;0.20;0.20;;;27.80;70.30;;;28.49;54.89;94563.94;5095312;28;20195;-41
2023/07/12 05:59:36;;;;;;;0.28;0.28;;;27.80;70.20;;;28.49;55.07;94572.03;5095103;28;20642;-41
2023/07/12 06:02:03;;;;;;;0.30;0.30;;;27.80;70.20;;;28.49;55.45;94563.94;5095064;28;20687;-42
2023/07/12 06:04:30;;;;;;;0.20;0.20;;;27.80;70.20;;;28.50;54.95;94570.09;5094439;28;20197;-42
2023/07/12 06:06:57;;;;;;;0.30;0.30;;;27.80;70.20;;;28.50;55.22;94570.09;5094987;28;20197;-43
2023/07/12 06:09:24;;;;;;;0.30;0.30;;;27.80;70.20;;;28.50;55.01;94573.59;5095281;28;20276;-41
2023/07/12 06:11:51;;;;;;;0.30;0.30;;;27.80;70.20;;;28.49;55.48;94577.41;5110854;28;20679;-41
2023/07/12 06:14:19;;;;;;;0.30;0.30;;;27.90;70.20;;;28.49;55.03;94580.13;5094960;28;20218;-42
2023/07/12 06:16:46;;;;;;;0.30;0.30;;;27.80;70.20;;;28.49;55.24;94580.13;5093953;28;20546;-41
2023/07/12 06:19:13;;;;;;;0.30;0.30;;;27.80;70.20;;;28.49;54.97;94582.81;5094858;28;20212;-42
2023/07/12 06:21:40;;;;;;;0.30;0.30;;;27.80;70.10;;;28.49;55.20;94582.81;5095147;28;20204;-46
2023/07/12 06:24:07;;;;;;;0.28;0.28;;;27.80;70.10;;;28.49;55.32;94590.91;5094858;28;20200;-43
2023/07/12 06:26:34;;;;;;;0.30;0.30;;;27.80;70.10;;;28.50;54.78;94599.78;5094674;28;20234;-41
2023/07/12 06:29:02;;;;;;;0.22;0.22;;;27.90;70.10;;;28.49;54.74;94600.88;5094212;28;20194;-41
2023/07/12 06:31:30;;;;;;;0.30;0.30;;;27.90;70.00;;;28.49;55.24;94600.88;5094673;28;20734;-41
2023/07/12 06:34:00;;;;;;;0.30;0.30;;;27.90;70.10;;;28.49;54.56;94609.78;5094764;28;20198;-43
2023/07/12 06:36:28;;;;;;;0.30;0.30;;;27.90;70.00;;;28.49;55.14;94617.88;5094219;28;20259;-42
2023/07/12 06:38:56;;;;;;;0.30;0.30;;;27.80;70.00;;;28.49;55.30;94617.06;5094932;28;20604;-40
2023/07/12 06:41:23;;;;;;;0.20;0.20;;;27.80;70.00;;;28.49;55.07;94619.78;5094757;28;20273;-44
2023/07/12 06:43:50;;;;;;;0.30;0.30;;;27.80;70.00;;;28.49;55.31;94625.97;5094677;28;20209;-41
2023/07/12 06:46:17;;;;;;;0.28;0.28;;;27.90;70.00;;;28.49;54.59;94630.56;5094903;28;20269;-43
2023/07/12 06:48:45;;;;;;;0.30;0.30;;;27.80;70.00;;;28.48;54.92;94639.75;5095190;28;20199;-42
2023/07/12 06:51:12;;;;;;;0.20;0.20;;;27.80;70.00;;;28.48;55.10;94640.56;5094881;28;20301;-44
2023/07/12 06:53:39;;;;;;;0.30;0.30;;;27.80;70.00;;;28.49;54.76;94636.78;5098061;28;20216;-45
2023/07/12 06:56:07;;;;;;;0.30;0.30;;;27.80;70.10;;;28.49;55.23;94642.16;5098410;28;20653;-41
2023/07/12 06:58:34;;;;;;;0.30;0.30;;;27.80;70.10;;;28.50;55.07;94654.53;5098219;28;20244;-41
2023/07/12 07:01:10;;;;;;;0.20;0.20;;;27.90;70.10;;;28.51;54.75;94661.50;5098267;28;20632;-41
2023/07/12 07:03:38;;;;;;;0.30;0.30;;;27.90;70.20;;;28.51;55.30;94666.91;5098137;28;20506;-44
2023/07/12 07:06:05;;;;;;;0.20;0.20;;;27.90;70.10;;;28.52;54.91;94663.09;5098534;28;20589;-42
2023/07/12 07:08:32;;;;;;;0.28;0.28;;;27.90;70.20;;;28.52;54.74;94673.91;5098124;28;20206;-41
2023/07/12 07:11:02;;;;;;;0.30;0.30;;;27.90;70.20;;;28.53;55.38;94674.72;5097258;28;20200;-43
2023/07/12 07:13:30;;;;;;;0.20;0.20;;;27.90;70.10;;;28.54;54.87;94673.59;5097984;28;20189;-44
2023/07/12 07:15:57;;;;;;;0.20;0.20;;;27.90;70.20;;;28.54;54.81;94679.78;5098209;28;20236;-40
2023/07/12 07:18:24;;;;;;;0.30;0.30;;;27.90;70.10;;;28.54;55.27;94677.09;5097871;28;20650;-40
2023/07/12 07:20:54;;;;;;;0.20;0.20;;;27.90;70.10;;;28.55;54.91;94684.09;5098179;28;20215;-40
2023/07/12 07:23:23;;;;;;;0.20;0.20;;;27.90;70.10;;;28.56;54.63;94687.56;5097022;28;20248;-41
2023/07/12 07:25:50;;;;;;;0.30;0.30;;;27.90;70.00;;;28.55;55.12;94691.38;5096766;28;20620;-41
2023/07/12 07:28:20;;;;;;;0.30;0.30;;;27.90;70.00;;;28.56;55.07;94692.97;5098350;28;20191;-40
2023/07/12 07:30:55;;;;;;;0.20;0.20;;;28.00;70.10;;;28.57;54.67;94695.34;5097746;28;20243;-41
2023/07/12 07:33:23;;;;;;;0.30;0.30;;;28.00;70.10;;;28.58;54.76;94679.97;5097643;28;20241;-41
2023/07/12 07:35:50;;;;;;;0.20;0.20;;;28.00;70.10;;;28.58;54.87;94683.44;5096660;28;20203;-42
2023/07/12 07:38:17;;;;;;;0.20;0.20;;;27.90;70.00;;;28.59;55.04;94686.94;5097543;28;20219;-41
2023/07/12 07:40:44;;;;;;;0.20;0.20;;;28.00;70.10;;;28.62;54.64;94690.94;5097504;28;20656;-41
2023/07/12 07:43:14;;;;;;;0.32;0.32;;;28.00;70.10;;;28.61;55.03;94682.03;5097337;28;20637;-40
2023/07/12 07:45:42;;;;;;;0.30;0.30;;;28.00;70.00;;;28.61;55.02;94682.03;5079944;28;20202;-40
2023/07/12 07:48:10;;;;;;;0.20;0.20;;;28.00;70.00;;;28.63;55.38;94670.94;5097913;28;20220;-41
2023/07/12 07:50:42;;;;;;;0.40;0.40;;;28.00;70.00;;;28.63;54.75;94677.13;5096435;28;20551;-40
2023/07/12 07:53:11;;;;;;;0.20;0.20;;;28.00;69.90;;;28.65;55.16;94679.50;5097148;28;20556;-41
2023/07/12 07:55:45;;;;;;;0.30;0.30;;;28.00;69.90;;;28.64;55.21;94673.31;5097474;28;20196;-40
2023/07/12 07:58:12;;;;;;;0.35;0.35;;;28.00;70.00;;;28.65;54.60;94677.59;5097476;28;20526;-40
2023/07/12 08:00:40;;;;;;;0.30;0.30;;;28.00;69.80;;;28.67;54.55;94674.59;5097141;28;20184;-43
2023/07/12 08:03:07;;;;;;;0.30;0.30;;;28.00;69.90;;;28.67;55.17;94669.19;5096722;28;20634;-41
2023/07/12 08:05:35;;;;;;;0.20;0.20;;;28.00;69.90;;;28.68;54.98;94678.88;5096561;28;20193;-40
2023/07/12 08:08:02;;;;;;;0.30;0.30;;;28.00;69.90;;;28.68;55.13;94681.56;5097009;28;20228;-41
2023/07/12 08:10:29;;;;;;;0.30;0.30;;;28.10;70.00;;;28.70;55.03;94684.81;5096930;28;20589;-43
2023/07/12 08:12:58;;;;;;;0.30;0.30;;;28.00;69.80;;;28.70;55.00;94682.88;5113035;27;20325;-42
2023/07/12 08:15:26;;;;;;;0.30;0.30;;;28.00;69.80;;;28.72;55.09;94690.66;5096881;28;20233;-41
2023/07/12 08:17:54;;;;;;;0.30;0.30;;;28.10;69.80;;;28.72;54.71;94688.78;5096658;28;20279;-41
2023/07/12 08:20:23;;;;;;;0.30;0.30;;;28.10;69.80;;;28.73;54.28;94686.84;5112763;28;20649;-41
2023/07/12 08:22:50;;;;;;;0.25;0.25;;;28.10;69.80;;;28.73;54.90;94693.06;5095944;28;20221;-41
2023/07/12 08:25:17;;;;;;;0.20;0.20;;;28.10;69.80;;;28.74;54.87;94702.72;5097231;28;20430;-40
2023/07/12 08:27:44;;;;;;;0.30;0.30;;;28.10;69.80;;;28.75;54.96;94704.31;5096472;28;20239;-42
2023/07/12 08:30:12;;;;;;;0.30;0.30;;;28.10;69.70;;;28.76;54.99;94705.13;5096835;28;20197;-44
2023/07/12 08:32:40;;;;;;;0.30;0.30;;;28.10;69.60;;;28.78;54.30;94702.13;5096587;28;20267;-40
2023/07/12 08:35:10;;;;;;;0.25;0.25;;;28.10;69.60;;;28.80;54.37;94708.00;5096476;28;20197;-44
2023/07/12 08:37:37;;;;;;;0.30;0.30;;;28.10;69.60;;;28.80;54.82;94697.22;5096628;28;20221;-45
2023/07/12 08:40:07;;;;;;;0.30;0.30;;;28.20;69.40;;;28.82;54.24;94703.88;5096323;28;20646;-42
2023/07/12 08:42:42;;;;;;;0.30;0.30;;;28.20;69.40;;;28.81;54.63;94696.06;5096241;28;20208;-44
2023/07/12 08:45:25;;;;;;;0.20;0.20;;;28.20;69.30;;;28.83;54.33;94693.88;5096400;28;20277;-45
2023/07/12 08:47:59;;;;;;;0.30;0.30;;;28.10;69.20;;;28.83;54.62;94693.88;5096541;28;20296;-47
2023/07/12 08:50:35;;;;;;;0.30;0.30;;;28.20;69.30;;;28.83;54.05;94693.88;5095646;28;20256;-48
2023/07/12 08:53:04;;;;;;;0.22;0.22;;;28.20;70.20;;;28.85;54.39;94697.06;5096196;28;20192;-45
2023/07/12 08:55:33;;;;;;;0.30;0.30;;;28.20;69.30;;;28.85;54.57;94689.75;5078712;28;20194;-48
2023/07/12 08:58:36;;;;;;;0.30;0.30;;;28.20;69.30;;;28.85;54.17;94684.34;5095135;28;20200;-44
2023/07/12 09:01:13;;;;;;;0.28;0.28;;;28.20;69.30;;;28.86;53.84;94695.97;5095202;28;20233;-46
2023/07/12 09:03:40;;;;;;;0.30;0.30;;;28.20;69.30;;;28.88;54.40;94693.72;5095935;28;20665;-48
2023/07/12 09:06:16;;;;;;;0.30;0.30;;;28.20;69.30;;;28.89;54.19;94684.50;5095033;28;20204;-46
2023/07/12 09:08:49;;;;;;;0.30;0.30;;;28.20;69.30;;;28.90;54.35;94696.91;5095268;28;20209;-50
2023/07/12 09:11:20;;;;;;;0.30;0.30;;;28.20;69.30;;;28.90;53.66;94680.72;5095720;28;20178;-49
2023/07/12 09:13:49;;;;;;;0.20;0.20;;;28.20;69.30;;;28.91;53.74;94687.69;5094831;28;20208;-44
2023/07/12 09:16:34;;;;;;;0.30;0.30;;;28.20;69.30;;;28.92;53.96;94684.69;5095464;28;20216;-44
2023/07/12 09:19:30;;;;;;;0.25;0.25;;;28.20;69.30;;;28.93;54.17;94680.09;5095908;28;20270;-44
2023/07/12 09:22:03;;;;;;;0.30;0.30;;;28.30;69.30;;;28.92;53.34;94673.88;5095872;28;20543;-44
2023/07/12 09:24:31;;;;;;;0.30;0.30;;;28.30;69.30;;;28.96;53.78;94670.56;5078507;28;20184;-44
2023/07/12 09:27:04;;;;;;;0.30;0.30;;;28.30;69.30;;;28.97;53.39;94658.66;5095384;28;20241;-43
2023/07/12 09:29:35;;;;;;;0.20;0.20;;;28.30;69.30;;;28.97;53.82;94669.47;5095495;28;20250;-44
2023/07/12 09:32:36;;;;;;;0.25;0.25;;;28.30;69.30;;;28.99;53.39;94661.81;5095811;28;20205;-44
2023/07/12 09:35:22;;;;;;;0.30;0.30;;;28.30;69.30;;;28.99;53.12;94651.03;5095271;28;20198;-44
2023/07/12 09:38:02;;;;;;;0.30;0.30;;;28.30;69.30;;;29.00;53.38;94648.03;5095692;28;20184;-44
2023/07/12 09:40:38;;;;;;;0.30;0.30;;;28.30;69.00;;;29.02;53.53;94645.78;5095644;28;20268;-46
2023/07/12 09:43:20;;;;;;;0.30;0.30;;;28.40;69.40;;;29.04;53.12;94648.16;5094530;28;20275;-45
2023/07/12 09:46:15;;;;;;;0.30;0.30;;;28.40;68.90;;;29.05;53.01;94650.56;5095619;28;20189;-44
2023/07/12 09:49:05;;;;;;;0.30;0.30;;;28.30;68.90;;;29.02;53.07;94645.00;5077607;28;20269;-44
2023/07/12 09:51:47;;;;;;;0.30;0.30;;;28.40;68.70;;;29.07;53.21;94650.25;5095228;28;20617;-44
2023/07/12 09:54:24;;;;;;;0.20;0.20;;;28.40;68.60;;;29.11;53.26;94647.69;5095189;28;20635;-43
2023/07/12 09:57:00;;;;;;;0.30;0.30;;;28.40;68.80;;;29.12;53.06;94649.28;5095462;28;20216;-44
2023/07/12 09:59:59;;;;;;;0.30;0.30;;;28.40;68.50;;;29.11;52.81;94642.31;5094236;28;20205;-44
2023/07/12 10:02:41;;;;;;;0.30;0.30;;;28.40;68.50;;;29.14;53.19;94652.47;5094513;28;20267;-44
2023/07/12 10:05:19;;;;;;;0.30;0.30;;;28.50;68.50;;;29.16;52.99;94644.84;5095079;28;20181;-43
2023/07/12 10:08:09;;;;;;;0.30;0.30;;;28.50;68.30;;;29.17;52.98;94644.50;5094215;28;20181;-45
2023/07/12 10:10:45;;;;;;;0.28;0.28;;;28.50;68.20;;;29.19;52.86;94647.69;5095292;28;20190;-44
2023/07/12 10:13:23;;;;;;;0.30;0.30;;;28.50;68.40;;;29.22;52.43;94640.88;5095082;28;20255;-44
2023/07/12 10:15:51;;;;;;;0.30;0.30;;;28.50;68.20;;;29.23;52.52;94651.38;5095254;28;20178;-44
2023/07/12 10:18:22;;;;;;;0.30;0.30;;;28.50;68.20;;;29.26;52.47;94649.13;5094073;28;20207;-47
2023/07/12 10:20:50;;;;;;;0.20;0.20;;;28.50;68.10;;;29.29;52.45;94651.22;5094328;28;20263;-45
2023/07/12 10:23:23;;;;;;;0.30;0.30;;;28.60;68.00;;;29.31;51.91;94652.50;5094334;28;20186;-45
2023/07/12 10:25:58;;;;;;;0.20;0.20;;;28.50;67.90;;;29.32;51.56;94648.69;5094687;28;20170;-44
2023/07/12 10:28:56;;;;;;;0.20;0.20;;;28.50;67.80;;;29.32;52.38;94643.31;5098312;28;20189;-44
2023/07/12 10:31:45;;;;;;;0.30;0.30;;;28.60;67.90;;;29.25;52.06;94632.16;5098846;28;20186;-44
2023/07/12 10:34:47;;;;;;;0.30;0.30;;;28.60;67.60;;;29.33;51.67;94638.69;5098817;28;20179;-44